Time;durP1;ratioP1;P1;durP2;ratioP2;P2;SDS_P1;SDS_P2;PMS_P1;PMS_P2;Temp;Humidity;BMP_temperature;BMP_pressure;BME280_temperature;BME280_humidity;BME280_pressure;Samples;Min_cycle;Max_cycle;Signal;HPM_P1;HPM_P2
2023/11/03 00:00:29;;;;;;;0.17;0.17;;;;;;;15.88;60.06;97694.59;5310687;26;20052;-94
2023/11/03 00:02:59;;;;;;;0.17;0.17;;;;;;;15.99;60.06;97680.53;5324601;26;20171;-94
2023/11/03 00:05:24;;;;;;;0.30;0.30;;;;;;;15.99;60.06;97680.53;5312719;26;20038;-95
2023/11/03 00:07:50;;;;;;;1.45;0.98;;;;;;;15.98;60.06;97682.34;5308548;26;20053;-94
2023/11/03 00:10:16;;;;;;;0.08;0.08;;;;;;;15.91;60.05;97660.22;5308226;26;20056;-95
2023/11/03 00:12:42;;;;;;;0.30;0.30;;;;;;;16.05;60.06;97672.12;5308609;26;20039;-95
2023/11/03 00:15:09;;;;;;;0.00;0.00;;;;;;;15.99;60.06;97651.66;5308382;26;20129;-95
2023/11/03 00:17:38;;;;;;;0.13;0.13;;;;;;;16.01;60.07;97662.88;5309462;26;20120;-95
2023/11/03 00:20:05;;;;;;;0.22;0.00;;;;;;;15.90;60.05;97651.53;5290432;26;20106;-95
2023/11/03 00:22:30;;;;;;;0.68;0.68;;;;;;;15.90;60.05;97654.16;5291082;26;20874;-94
2023/11/03 00:24:56;;;;;;;0.00;0.00;;;;;;;15.98;60.06;97656.09;5308370;26;20095;-95
2023/11/03 00:27:23;;;;;;;0.05;0.05;;;;;;;15.96;60.06;97658.03;5311437;26;20123;-95
2023/11/03 00:29:49;;;;;;;3.20;1.75;;;;;;;15.98;60.06;97658.72;5310374;26;20068;-94
2023/11/03 00:32:15;;;;;;;0.40;0.40;;;;;;;15.84;60.05;97649.41;5309259;26;20127;-94
2023/11/03 00:34:40;;;;;;;0.00;0.00;;;;;;;15.98;60.06;97645.59;5308838;26;20129;-95
2023/11/03 00:37:07;;;;;;;2.83;0.88;;;;;;;16.00;60.07;97659.41;5309737;26;20159;-94
2023/11/03 00:39:32;;;;;;;2.50;1.83;;;;;;;15.96;60.06;97644.91;5309133;26;20063;-95
2023/11/03 00:41:58;;;;;;;0.05;0.05;;;;;;;15.99;60.06;97643.81;5308401;26;20332;-95
2023/11/03 00:44:25;;;;;;;2.03;0.57;;;;;;;16.03;60.06;97638.16;5309072;26;20095;-95
2023/11/03 00:46:51;;;;;;;0.35;0.25;;;;;;;16.04;60.06;97631.94;5309187;26;20060;-95
2023/11/03 00:49:18;;;;;;;0.05;0.05;;;;;;;16.06;60.06;97642.28;5310672;26;20697;-94
2023/11/03 00:51:44;;;;;;;0.75;0.75;;;;;;;16.06;60.06;97632.63;5308886;26;20060;-94
2023/11/03 00:54:09;;;;;;;0.00;0.00;;;;;;;16.12;60.07;97623.41;5307913;26;20121;-94
2023/11/03 00:56:39;;;;;;;0.00;0.00;;;;;;;16.17;60.07;97610.69;5307464;26;20098;-95
2023/11/03 00:59:04;;;;;;;3.35;0.90;;;;;;;16.18;60.07;97607.94;5307919;26;20721;-95
2023/11/03 01:01:30;;;;;;;1.77;0.50;;;;;;;16.03;60.06;97617.16;5308224;26;20083;-95
2023/11/03 01:03:56;;;;;;;0.82;0.65;;;;;;;16.06;60.06;97595.06;5308762;26;20121;-95
2023/11/03 01:06:24;;;;;;;0.20;0.20;;;;;;;16.07;60.06;97594.09;5291522;26;20442;-96
2023/11/03 01:08:54;;;;;;;0.15;0.15;;;;;;;15.93;60.05;97600.56;5311200;26;20063;-96
2023/11/03 01:11:23;;;;;;;0.00;0.00;;;;;;;15.85;60.05;97592.53;5312899;26;20038;-92
2023/11/03 01:13:48;;;;;;;0.00;0.00;;;;;;;15.90;60.06;97585.09;5290923;26;20136;-94
2023/11/03 01:16:15;;;;;;;2.60;0.52;;;;;;;16.03;60.06;97576.97;5308124;26;20093;-93
2023/11/03 01:18:42;;;;;;;0.00;0.00;;;;;;;15.88;60.06;97566.03;5308134;26;20207;-96
2023/11/03 01:21:12;;;;;;;0.10;0.10;;;;;;;15.87;60.06;97572.25;5307907;26;20080;-94
2023/11/03 01:23:41;;;;;;;5.72;1.15;;;;;;;15.79;60.05;97562.41;5327286;26;20055;-95
2023/11/03 01:26:10;;;;;;;0.43;0.43;;;;;;;15.71;60.05;97567.53;5290339;26;20024;-94
2023/11/03 01:28:36;;;;;;;0.32;0.32;;;;;;;15.79;60.06;97569.47;5308146;26;20057;-94
2023/11/03 01:31:04;;;;;;;2.72;0.80;;;;;;;15.83;60.05;97569.03;5326286;26;20098;-94
2023/11/03 01:33:29;;;;;;;0.73;0.73;;;;;;;15.76;60.05;97561.87;5326894;26;20057;-95
2023/11/03 01:35:55;;;;;;;0.32;0.30;;;;;;;15.81;60.05;97564.91;5336581;26;20483;-92
2023/11/03 01:38:20;;;;;;;0.00;0.00;;;;;;;15.80;60.05;97564.06;5317123;26;20118;-94
2023/11/03 01:40:46;;;;;;;0.00;0.00;;;;;;;15.74;60.05;97564.63;5327389;26;20080;-95
2023/11/03 01:43:11;;;;;;;0.30;0.30;;;;;;;15.80;60.05;97564.06;5307859;26;20097;-94
2023/11/03 01:45:37;;;;;;;0.50;0.50;;;;;;;15.85;60.05;97555.78;5307295;26;26631;-93
2023/11/03 01:48:03;;;;;;;0.32;0.32;;;;;;;15.81;60.05;97554.41;5326480;26;20103;-94
2023/11/03 01:50:29;;;;;;;0.00;0.00;;;;;;;15.70;60.04;97562.41;5326367;26;20056;-94
2023/11/03 01:52:54;;;;;;;0.22;0.22;;;;;;;15.63;60.05;97556.88;5326334;26;20052;-92
2023/11/03 01:55:20;;;;;;;0.75;0.28;;;;;;;15.76;60.05;97541.72;5326292;26;20103;-94
2023/11/03 01:57:45;;;;;;;0.28;0.28;;;;;;;15.70;60.05;97534.38;5306399;26;20150;-94
2023/11/03 02:00:13;;;;;;;0.30;0.30;;;;;;;15.65;60.04;97536.59;5307808;26;20135;-93
2023/11/03 02:02:39;;;;;;;0.00;0.00;;;;;;;15.75;60.05;97536.59;5289915;26;20079;-92
2023/11/03 02:05:06;;;;;;;0.35;0.35;;;;;;;15.81;60.05;97513.28;5307263;26;20091;-93
2023/11/03 02:07:31;;;;;;;0.00;0.00;;;;;;;15.74;60.04;97516.56;5308006;26;20048;-92
2023/11/03 02:09:56;;;;;;;0.00;0.00;;;;;;;15.68;60.04;97498.78;5307565;26;20102;-92
2023/11/03 02:12:22;;;;;;;0.35;0.35;;;;;;;15.74;60.04;97496.44;5325236;26;20102;-93
2023/11/03 02:14:49;;;;;;;1.20;0.20;;;;;;;15.69;60.04;97482.91;5307454;26;20174;-95
2023/11/03 02:17:15;;;;;;;0.00;0.00;;;;;;;15.69;60.04;97492.56;5307887;26;20044;-94
2023/11/03 02:19:41;;;;;;;0.28;0.28;;;;;;;15.40;60.03;97495.09;5307897;26;20069;-94
2023/11/03 02:22:06;;;;;;;2.05;0.85;;;;;;;15.46;60.02;97492.75;5308391;26;20170;-93
2023/11/03 02:24:31;;;;;;;0.47;0.47;;;;;;;15.40;60.03;97502.97;5308019;26;20091;-94
2023/11/03 02:26:57;;;;;;;0.17;0.17;;;;;;;15.44;60.03;97499.94;5308224;26;20045;-93
2023/11/03 02:29:22;;;;;;;0.22;0.22;;;;;;;15.48;60.04;97488.22;5308105;26;20080;-94
2023/11/03 02:31:48;;;;;;;0.30;0.30;;;;;;;15.39;60.02;97482.94;5308616;26;20110;-93
2023/11/03 02:34:13;;;;;;;0.00;0.00;;;;;;;15.33;60.03;97484.28;5307170;26;20068;-93
2023/11/03 02:36:39;;;;;;;1.33;0.43;;;;;;;15.36;60.02;97478.78;5327076;26;20044;-95
2023/11/03 02:39:04;;;;;;;0.40;0.40;;;;;;;15.37;60.03;97467.34;5308563;26;20133;-93
2023/11/03 02:41:30;;;;;;;0.25;0.25;;;;;;;15.43;60.03;97445.00;5308543;26;20135;-94
2023/11/03 02:43:55;;;;;;;0.17;0.17;;;;;;;15.51;60.03;97448.59;5308568;26;20096;-93
2023/11/03 02:46:23;;;;;;;4.15;0.65;;;;;;;15.35;60.03;97449.13;5308165;26;20068;-94
2023/11/03 02:48:49;;;;;;;1.30;0.60;;;;;;;15.47;60.03;97438.53;5308705;26;20095;-93
2023/11/03 02:51:14;;;;;;;5.95;0.60;;;;;;;15.37;60.03;97420.16;5308389;26;20060;-93
2023/11/03 02:53:40;;;;;;;1.35;1.02;;;;;;;15.38;60.03;97402.63;5308748;26;20067;-94
2023/11/03 02:56:05;;;;;;;0.25;0.20;;;;;;;15.41;60.03;97399.75;5308640;26;20138;-93
2023/11/03 02:58:36;;;;;;;0.40;0.40;;;;;;;15.35;60.03;97390.62;5308553;26;20102;-94
2023/11/03 03:01:02;;;;;;;0.00;0.00;;;;;;;15.31;60.03;97390.06;5290475;26;20173;-94
2023/11/03 03:03:27;;;;;;;0.13;0.13;;;;;;;15.23;60.01;97391.72;5308243;26;20055;-93
2023/11/03 03:05:53;;;;;;;1.67;0.57;;;;;;;15.31;60.03;97376.97;5308120;26;27623;-94
2023/11/03 03:08:18;;;;;;;1.55;0.90;;;;;;;15.24;60.03;97360.12;5307131;26;20083;-93
2023/11/03 03:10:43;;;;;;;0.20;0.20;;;;;;;15.05;60.01;97360.09;5314797;26;20069;-94
2023/11/03 03:13:09;;;;;;;0.05;0.05;;;;;;;15.20;60.01;97360.56;5319122;26;25815;-93
2023/11/03 03:15:34;;;;;;;0.15;0.15;;;;;;;14.92;60.00;97368.22;5309878;26;20389;-93
2023/11/03 03:18:00;;;;;;;0.00;0.00;;;;;;;15.07;60.01;97368.66;5308580;26;20130;-94
2023/11/03 03:20:25;;;;;;;0.35;0.35;;;;;;;14.97;60.00;97379.13;5308707;26;20329;-93
2023/11/03 03:22:51;;;;;;;0.00;0.00;;;;;;;14.97;60.00;97373.88;5308790;26;20362;-94
2023/11/03 03:25:16;;;;;;;3.75;1.42;;;;;;;14.95;60.00;97362.72;5308466;26;20071;-93
2023/11/03 03:27:41;;;;;;;0.00;0.00;;;;;;;15.01;60.00;97370.03;5326307;26;20080;-92
2023/11/03 03:30:07;;;;;;;0.22;0.22;;;;;;;15.08;60.01;97370.31;5308166;26;20111;-92
2023/11/03 03:32:33;;;;;;;0.03;0.03;;;;;;;15.07;60.01;97371.28;5289605;26;20134;-93
2023/11/03 03:34:58;;;;;;;0.20;0.10;;;;;;;15.04;60.01;97367.12;5307971;26;20459;-94
2023/11/03 03:37:24;;;;;;;0.20;0.20;;;;;;;15.12;60.02;97357.75;5308082;26;20072;-93
2023/11/03 03:39:49;;;;;;;1.75;1.27;;;;;;;15.16;60.01;97351.31;5308261;26;20098;-94
2023/11/03 03:42:14;;;;;;;0.95;0.52;;;;;;;15.17;60.02;97351.19;5308218;26;20070;-93
2023/11/03 03:44:40;;;;;;;0.20;0.20;;;;;;;15.16;60.01;97346.06;5308289;26;20086;-93
2023/11/03 03:47:06;;;;;;;1.58;1.23;;;;;;;15.05;60.01;97341.75;5290083;26;20064;-93
2023/11/03 03:49:32;;;;;;;0.88;0.55;;;;;;;15.07;60.01;97345.06;5290022;26;20445;-93
2023/11/03 03:51:58;;;;;;;0.28;0.28;;;;;;;15.01;60.00;97345.62;5308090;26;20096;-92
2023/11/03 03:54:23;;;;;;;0.32;0.32;;;;;;;15.10;60.02;97352.66;5308382;26;20116;-93
2023/11/03 03:56:48;;;;;;;1.20;0.62;;;;;;;15.03;60.01;97344.53;5308009;26;20111;-91
2023/11/03 03:59:14;;;;;;;0.00;0.00;;;;;;;15.03;60.01;97328.81;5307865;26;20482;-92
2023/11/03 04:01:41;;;;;;;0.08;0.08;;;;;;;15.14;60.01;97329.62;5307953;26;20108;-93
2023/11/03 04:04:07;;;;;;;1.02;1.00;;;;;;;15.14;60.01;97327.00;5290593;26;20062;-94
2023/11/03 04:06:33;;;;;;;0.00;0.00;;;;;;;15.26;60.02;97328.56;5308512;26;20065;-93
2023/11/03 04:08:58;;;;;;;0.35;0.35;;;;;;;15.16;60.01;97330.34;5307476;26;20083;-93
2023/11/03 04:11:24;;;;;;;0.00;0.00;;;;;;;15.21;60.02;97330.75;5307474;26;20059;-93
2023/11/03 04:13:49;;;;;;;0.65;0.47;;;;;;;15.23;60.02;97324.41;5308332;26;20191;-93
2023/11/03 04:16:14;;;;;;;0.08;0.08;;;;;;;15.28;60.02;97318.75;5326719;26;20113;-94
2023/11/03 04:18:40;;;;;;;0.20;0.20;;;;;;;15.30;60.02;97296.69;5306049;26;32906;-91
2023/11/03 04:21:05;;;;;;;0.22;0.22;;;;;;;15.29;60.02;97287.16;5308263;26;20102;-92
2023/11/03 04:23:31;;;;;;;0.70;0.70;;;;;;;15.23;60.02;97276.41;5308179;26;20106;-91
2023/11/03 04:25:56;;;;;;;0.00;0.00;;;;;;;15.18;60.02;97273.37;5308232;26;20078;-92
2023/11/03 04:28:22;;;;;;;0.45;0.45;;;;;;;15.04;60.01;97278.06;5307908;26;20105;-93
2023/11/03 04:30:47;;;;;;;0.00;0.00;;;;;;;15.02;60.01;97266.91;5307674;26;23732;-93
2023/11/03 04:33:13;;;;;;;1.45;0.95;;;;;;;15.00;60.00;97276.69;5307620;26;24257;-93
2023/11/03 04:35:39;;;;;;;0.68;0.68;;;;;;;15.20;60.02;97261.81;5308134;26;20061;-93
2023/11/03 04:38:04;;;;;;;0.55;0.30;;;;;;;15.25;60.03;97251.72;5308074;26;20459;-93
2023/11/03 04:40:30;;;;;;;0.57;0.57;;;;;;;15.23;60.02;97247.59;5308036;26;20090;-92
2023/11/03 04:42:55;;;;;;;0.00;0.00;;;;;;;15.32;60.03;97228.41;5308301;26;20075;-92
2023/11/03 04:45:21;;;;;;;0.00;0.00;;;;;;;15.31;60.02;97216.25;5316461;26;20111;-91
2023/11/03 04:47:46;;;;;;;0.10;0.10;;;;;;;15.32;60.03;97207.44;5332432;26;20109;-92
2023/11/03 04:50:12;;;;;;;0.13;0.13;;;;;;;15.29;60.02;97198.06;5307973;26;20115;-92
2023/11/03 04:52:38;;;;;;;0.08;0.08;;;;;;;15.09;60.02;97212.16;5307586;26;26340;-93
2023/11/03 04:55:04;;;;;;;0.17;0.17;;;;;;;15.09;60.01;97208.69;5308013;26;20081;-92
2023/11/03 04:57:29;;;;;;;1.20;0.40;;;;;;;15.12;60.01;97192.69;5308127;26;20083;-92
2023/11/03 04:59:55;;;;;;;4.55;0.47;;;;;;;15.09;60.01;97190.34;5307687;26;20086;-94
2023/11/03 05:02:20;;;;;;;1.20;0.70;;;;;;;15.21;60.02;97176.97;5308196;26;20102;-94
2023/11/03 05:04:46;;;;;;;0.98;0.50;;;;;;;15.15;60.01;97172.31;5308211;26;20065;-94
2023/11/03 05:07:12;;;;;;;0.10;0.10;;;;;;;15.07;60.01;97176.56;5308048;26;20120;-91
2023/11/03 05:09:37;;;;;;;0.10;0.10;;;;;;;15.21;60.01;97179.59;5308064;26;20059;-91
2023/11/03 05:12:03;;;;;;;0.32;0.32;;;;;;;15.01;60.00;97191.06;5326097;26;20048;-92
2023/11/03 05:14:29;;;;;;;0.00;0.00;;;;;;;15.13;60.02;97191.72;5289803;26;20702;-92
2023/11/03 05:16:55;;;;;;;0.62;0.62;;;;;;;15.20;60.02;97198.91;5289662;26;20064;-92
2023/11/03 05:19:20;;;;;;;0.77;0.77;;;;;;;15.30;60.02;97183.16;5307880;26;20076;-91
2023/11/03 05:21:46;;;;;;;0.00;0.00;;;;;;;15.27;60.02;97186.06;5307737;26;20078;-92
2023/11/03 05:24:11;;;;;;;0.40;0.40;;;;;;;15.44;60.03;97177.47;5325711;26;26606;-91
2023/11/03 05:26:37;;;;;;;0.37;0.37;;;;;;;15.42;60.03;97183.84;5307372;26;20458;-93
2023/11/03 05:29:03;;;;;;;0.30;0.30;;;;;;;15.41;60.03;97182.19;5307102;26;20088;-92
2023/11/03 05:31:29;;;;;;;0.00;0.00;;;;;;;15.43;60.03;97175.00;5307894;26;20048;-93
2023/11/03 05:33:54;;;;;;;0.20;0.20;;;;;;;15.58;60.04;97169.16;5307753;26;20409;-93
2023/11/03 05:36:20;;;;;;;0.00;0.00;;;;;;;15.50;60.04;97168.22;5307662;26;20119;-93
2023/11/03 05:38:45;;;;;;;0.10;0.10;;;;;;;15.49;60.03;97159.53;5307502;26;20075;-91
2023/11/03 05:41:13;;;;;;;0.00;0.00;;;;;;;15.59;60.03;97154.25;5307850;26;20452;-92
2023/11/03 05:43:38;;;;;;;0.15;0.15;;;;;;;15.52;60.03;97164.47;5289242;26;20064;-93
2023/11/03 05:46:04;;;;;;;0.32;0.32;;;;;;;15.57;60.04;97164.88;5307320;26;20072;-94
2023/11/03 05:48:29;;;;;;;0.00;0.00;;;;;;;15.61;60.03;97165.44;5307764;26;20060;-93
2023/11/03 05:50:56;;;;;;;0.00;0.00;;;;;;;15.61;60.04;97165.44;5307871;26;20126;-93
2023/11/03 05:53:21;;;;;;;0.03;0.03;;;;;;;15.54;60.03;97161.72;5308303;26;20117;-93
2023/11/03 05:55:47;;;;;;;0.10;0.10;;;;;;;15.57;60.04;97162.25;5309399;26;20380;-92
2023/11/03 05:58:12;;;;;;;0.25;0.25;;;;;;;15.65;60.04;97164.22;5309493;26;20074;-94
2023/11/03 06:00:37;;;;;;;0.00;0.00;;;;;;;15.70;60.04;97163.78;5308060;26;29212;-92
2023/11/03 06:03:03;;;;;;;0.20;0.10;;;;;;;15.69;60.04;97169.97;5308755;26;20405;-92
2023/11/03 06:05:28;;;;;;;0.00;0.00;;;;;;;15.75;60.04;97153.66;5308494;26;20071;-90
2023/11/03 06:07:54;;;;;;;0.52;0.40;;;;;;;15.72;60.05;97146.09;5308181;26;24742;-93
2023/11/03 06:10:19;;;;;;;0.55;0.55;;;;;;;15.59;60.03;97151.66;5308274;26;20109;-90
2023/11/03 06:12:46;;;;;;;1.80;0.75;;;;;;;15.75;60.04;97145.78;5307622;26;20402;-92
2023/11/03 06:15:13;;;;;;;0.30;0.08;;;;;;;15.73;60.04;97153.81;5308330;26;20064;-91
2023/11/03 06:17:38;;;;;;;0.00;0.00;;;;;;;15.81;60.05;97153.06;5311889;26;20028;-94
2023/11/03 06:20:05;;;;;;;0.13;0.13;;;;;;;15.83;60.05;97157.22;5320130;26;20116;-93
2023/11/03 06:22:31;;;;;;;0.75;0.70;;;;;;;15.87;60.06;97150.72;5292032;26;20068;-93
2023/11/03 06:24:56;;;;;;;1.95;0.80;;;;;;;15.86;60.04;97150.87;5308512;26;20082;-93
2023/11/03 06:27:21;;;;;;;0.05;0.05;;;;;;;15.90;60.05;97153.06;5307799;26;20313;-94
2023/11/03 06:29:47;;;;;;;0.00;0.00;;;;;;;15.91;60.05;97162.56;5308850;26;20070;-94
2023/11/03 06:32:12;;;;;;;4.37;1.23;;;;;;;16.03;60.06;97155.31;5308419;26;20140;-94
2023/11/03 06:34:39;;;;;;;0.82;0.60;;;;;;;16.13;60.07;97152.66;5308953;26;20110;-94
2023/11/03 06:37:05;;;;;;;0.40;0.40;;;;;;;16.05;60.06;97149.91;5307459;26;20482;-93
2023/11/03 06:39:30;;;;;;;0.00;0.00;;;;;;;16.14;60.07;97159.56;5326812;26;20064;-95
2023/11/03 06:41:56;;;;;;;2.87;0.60;;;;;;;16.06;60.06;97160.28;5308541;26;20111;-93
2023/11/03 06:44:21;;;;;;;1.17;0.60;;;;;;;16.06;60.06;97175.19;5307487;26;29320;-94
2023/11/03 06:46:47;;;;;;;0.00;0.00;;;;;;;16.13;60.06;97163.16;5308288;26;20091;-94
2023/11/03 06:49:12;;;;;;;0.22;0.22;;;;;;;15.95;60.06;97166.56;5307866;26;21800;-95
2023/11/03 06:51:37;;;;;;;1.25;0.90;;;;;;;16.12;60.07;97159.72;5308528;26;20366;-95
2023/11/03 06:54:04;;;;;;;0.35;0.22;;;;;;;16.09;60.06;97157.37;5308636;26;20072;-93
2023/11/03 06:56:30;;;;;;;0.00;0.00;;;;;;;16.04;60.06;97161.38;5308418;26;20067;-95
2023/11/03 06:58:55;;;;;;;0.35;0.13;;;;;;;15.97;60.05;97150.66;5308554;26;20056;-95
2023/11/03 07:01:20;;;;;;;0.05;0.00;;;;;;;16.01;60.06;97162.50;5308106;26;20083;-94
2023/11/03 07:03:46;;;;;;;0.17;0.17;;;;;;;16.01;60.07;97161.69;5308220;26;20072;-94
2023/11/03 07:06:13;;;;;;;0.37;0.28;;;;;;;15.69;60.04;97160.31;5306487;26;20060;-96
2023/11/03 07:08:39;;;;;;;0.20;0.20;;;;;;;15.86;60.04;97156.94;5307084;26;20706;-95
2023/11/03 07:11:04;;;;;;;0.30;0.28;;;;;;;15.84;60.04;97155.41;5306973;26;20069;-95
2023/11/03 07:13:29;;;;;;;23.75;0.62;;;;;;;15.83;60.04;97154.59;5307897;26;20060;-96
2023/11/03 07:15:55;;;;;;;0.00;0.00;;;;;;;15.82;60.05;97149.47;5306892;26;20116;-96
2023/11/03 07:18:21;;;;;;;0.40;0.40;;;;;;;15.73;60.05;97153.81;5288230;26;20068;-96
2023/11/03 07:20:47;;;;;;;0.00;0.00;;;;;;;15.75;60.04;97151.03;5288802;26;20064;-95
2023/11/03 07:23:13;;;;;;;1.08;0.43;;;;;;;15.67;60.04;97140.47;5307236;26;20119;-95
2023/11/03 07:25:38;;;;;;;0.95;0.62;;;;;;;15.64;60.05;97133.72;5307191;26;20397;-96
2023/11/03 07:28:04;;;;;;;0.52;0.52;;;;;;;15.66;60.04;97126.53;5306837;26;20072;-95
2023/11/03 07:30:29;;;;;;;1.02;0.90;;;;;;;15.71;60.04;97124.28;5306778;26;20444;-95
2023/11/03 07:32:55;;;;;;;1.15;0.75;;;;;;;15.73;60.05;97114.47;5306618;26;20091;-95
2023/11/03 07:35:20;;;;;;;0.55;0.30;;;;;;;15.66;60.04;97105.53;5325457;26;20087;-94
2023/11/03 07:37:46;;;;;;;0.00;0.00;;;;;;;15.71;60.04;97097.22;5307018;26;20400;-95
2023/11/03 07:40:12;;;;;;;0.00;0.00;;;;;;;15.71;60.05;97082.31;5307110;26;20078;-94
2023/11/03 07:42:38;;;;;;;0.00;0.00;;;;;;;15.78;60.05;97080.75;5288641;26;20044;-96
2023/11/03 07:45:04;;;;;;;0.00;0.00;;;;;;;15.66;60.05;97095.06;5307834;26;20059;-95
2023/11/03 07:47:30;;;;;;;0.13;0.10;;;;;;;15.55;60.04;97100.44;5307132;26;20052;-96
2023/11/03 07:49:56;;;;;;;0.10;0.10;;;;;;;15.50;60.04;97095.63;5312693;26;20120;-96
2023/11/03 07:52:22;;;;;;;0.75;0.75;;;;;;;15.56;60.04;97089.81;5320153;26;20779;-96
2023/11/03 07:54:47;;;;;;;0.17;0.17;;;;;;;15.55;60.04;97067.19;5307819;26;20076;-95
2023/11/03 07:57:12;;;;;;;0.35;0.35;;;;;;;15.70;60.04;97058.87;5306808;26;20354;-94
2023/11/03 07:59:40;;;;;;;2.80;1.45;;;;;;;15.63;60.05;97050.78;5306188;26;21089;-94
2023/11/03 08:02:06;;;;;;;0.20;0.20;;;;;;;15.57;60.04;97044.25;5307251;26;20079;-94
2023/11/03 08:04:32;;;;;;;0.75;0.75;;;;;;;15.65;60.04;97040.97;5307110;26;20087;-95
2023/11/03 08:06:57;;;;;;;0.10;0.10;;;;;;;15.59;60.04;97036.28;5306536;26;20044;-95
2023/11/03 08:09:27;;;;;;;1.60;1.08;;;;;;;15.44;60.03;97032.47;5305696;26;31461;-96
2023/11/03 08:11:53;;;;;;;0.22;0.22;;;;;;;15.53;60.03;97021.09;5307266;26;20033;-96
2023/11/03 08:14:19;;;;;;;0.25;0.25;;;;;;;15.50;60.03;97022.22;5307047;26;20075;-96
2023/11/03 08:16:45;;;;;;;14.52;1.58;;;;;;;15.53;60.03;97021.09;5306459;26;20414;-95
2023/11/03 08:19:12;;;;;;;2.12;1.90;;;;;;;15.45;60.03;97019.22;5306793;26;20086;-95
2023/11/03 08:21:42;;;;;;;0.22;0.15;;;;;;;15.43;60.03;97020.34;5289797;26;20124;-96
2023/11/03 08:24:13;;;;;;;4.55;0.98;;;;;;;15.33;60.03;97021.19;5307956;26;20060;-96
2023/11/03 08:26:39;;;;;;;0.00;0.00;;;;;;;15.52;60.03;97014.22;5289071;26;20074;-95
2023/11/03 08:29:05;;;;;;;0.10;0.10;;;;;;;15.45;60.03;97000.88;5288086;26;20119;-95
2023/11/03 08:31:30;;;;;;;0.80;0.65;;;;;;;15.43;60.03;97013.31;5288585;26;20113;-96
2023/11/03 08:33:56;;;;;;;0.65;0.65;;;;;;;15.40;60.03;97021.47;5325486;26;20075;-96
2023/11/03 08:36:22;;;;;;;0.30;0.30;;;;;;;15.30;60.02;97031.16;5307075;26;20123;-96
2023/11/03 08:38:48;;;;;;;0.75;0.75;;;;;;;15.32;60.01;97024.78;5306797;26;20064;-96
2023/11/03 08:41:13;;;;;;;1.40;0.88;;;;;;;15.34;60.03;97032.50;5306508;26;20059;-96
2023/11/03 08:43:39;;;;;;;0.10;0.10;;;;;;;15.37;60.02;97037.44;5305516;26;31348;-96
2023/11/03 08:46:04;;;;;;;1.02;0.93;;;;;;;15.43;60.03;97023.78;5306537;26;20080;-96
2023/11/03 08:48:30;;;;;;;0.17;0.17;;;;;;;15.38;60.02;97026.03;5306850;26;20123;-95
2023/11/03 08:50:55;;;;;;;0.60;0.22;;;;;;;15.43;60.03;97013.31;5306303;26;20084;-96
2023/11/03 08:53:23;;;;;;;0.20;0.20;;;;;;;15.40;60.03;97004.91;5306722;26;20076;-96
2023/11/03 08:55:50;;;;;;;0.10;0.10;;;;;;;15.29;60.02;96987.56;5308455;26;20072;-96
2023/11/03 08:58:16;;;;;;;0.98;0.88;;;;;;;15.29;60.02;96990.19;5288412;26;20073;-96
2023/11/03 09:00:44;;;;;;;0.85;0.73;;;;;;;15.34;60.02;96980.91;5288307;26;20174;-96
2023/11/03 09:03:10;;;;;;;0.25;0.17;;;;;;;15.35;60.02;96972.06;5306506;26;20403;-96
2023/11/03 09:05:36;;;;;;;0.20;0.20;;;;;;;15.33;60.02;96957.47;5306633;26;20072;-95
2023/11/03 09:08:02;;;;;;;0.35;0.20;;;;;;;15.21;60.01;96949.00;5306258;26;20110;-95
2023/11/03 09:10:29;;;;;;;2.40;1.75;;;;;;;15.31;60.03;96955.00;5306504;26;20092;-95
2023/11/03 09:12:54;;;;;;;0.75;0.75;;;;;;;15.35;60.02;96976.50;5307126;26;20064;-95
2023/11/03 09:15:20;;;;;;;0.03;0.03;;;;;;;15.27;60.02;97015.72;5306588;26;20111;-96
2023/11/03 09:17:45;;;;;;;1.55;1.45;;;;;;;15.32;60.03;97063.28;5306587;26;20072;-96
2023/11/03 09:20:12;;;;;;;0.35;0.35;;;;;;;15.44;60.03;97072.63;5306638;26;20130;-96
2023/11/03 09:22:37;;;;;;;0.20;0.20;;;;;;;15.42;60.03;97098.16;5317665;26;20029;-96
2023/11/03 09:25:03;;;;;;;0.62;0.62;;;;;;;15.52;60.03;97114.66;5314328;26;20119;-96
2023/11/03 09:27:29;;;;;;;0.57;0.57;;;;;;;15.57;60.04;97120.28;5298806;27;20114;-96
2023/11/03 09:29:54;;;;;;;0.47;0.47;;;;;;;15.78;60.05;97146.31;5301066;27;20068;-95
2023/11/03 09:32:20;;;;;;;0.30;0.30;;;;;;;15.74;60.04;97157.25;5299390;27;20060;-96
2023/11/03 09:34:48;;;;;;;0.45;0.45;;;;;;;16.03;60.06;97171.06;5281232;27;20129;-96
2023/11/03 09:37:14;;;;;;;0.00;0.00;;;;;;;16.06;60.06;97183.88;5300831;27;20068;-96
2023/11/03 09:39:39;;;;;;;0.37;0.37;;;;;;;16.08;60.06;97196.84;5300176;27;20437;-96
2023/11/03 09:42:05;;;;;;;0.00;0.00;;;;;;;16.01;60.05;97198.41;5281473;27;20060;-96
2023/11/03 09:44:31;;;;;;;0.10;0.10;;;;;;;16.07;60.06;97203.91;5300168;27;20425;-96
2023/11/03 09:47:02;;;;;;;1.55;1.15;;;;;;;16.06;60.05;97207.50;5299862;27;20099;-95
2023/11/03 09:49:28;;;;;;;3.05;1.12;;;;;;;16.03;60.06;97210.41;5300787;27;20111;-96
2023/11/03 09:51:54;;;;;;;0.55;0.55;;;;;;;16.17;60.07;97207.31;5281803;27;20839;-96
2023/11/03 09:54:19;;;;;;;0.00;0.00;;;;;;;16.16;60.07;97210.94;5299579;27;20053;-95
2023/11/03 09:56:45;;;;;;;0.20;0.20;;;;;;;16.06;60.06;97215.38;5299829;27;20118;-94
2023/11/03 09:59:12;;;;;;;0.40;0.40;;;;;;;16.08;60.06;97197.69;5281767;27;20124;-95
2023/11/03 10:01:38;;;;;;;0.70;0.70;;;;;;;16.05;60.06;97189.28;5300250;27;20166;-95
2023/11/03 10:04:04;;;;;;;0.10;0.10;;;;;;;16.07;60.06;97172.41;5282470;27;20386;-94
2023/11/03 10:06:30;;;;;;;0.45;0.45;;;;;;;16.20;60.07;97172.91;5299340;27;20043;-95
2023/11/03 10:08:58;;;;;;;0.05;0.05;;;;;;;16.09;60.06;97157.37;5281556;27;20105;-95
2023/11/03 10:11:23;;;;;;;0.50;0.50;;;;;;;16.18;60.07;97138.13;5299769;27;20117;-95
2023/11/03 10:13:48;;;;;;;1.37;0.95;;;;;;;16.20;60.07;97130.91;5299579;27;20143;-96
2023/11/03 10:16:14;;;;;;;1.30;1.25;;;;;;;16.19;60.07;97116.16;5281379;27;20120;-96
2023/11/03 10:18:39;;;;;;;0.55;0.55;;;;;;;16.24;60.06;97076.31;5299819;27;20648;-95
2023/11/03 10:21:08;;;;;;;0.15;0.15;;;;;;;16.14;60.06;97063.28;5281389;27;20405;-96
2023/11/03 10:23:37;;;;;;;0.50;0.50;;;;;;;16.20;60.07;97065.31;5300289;27;20049;-95
2023/11/03 10:26:04;;;;;;;0.20;0.20;;;;;;;16.42;60.07;97050.06;5299444;27;20117;-96
2023/11/03 10:28:31;;;;;;;0.82;0.82;;;;;;;16.45;60.08;97034.00;5312544;26;20080;-96
2023/11/03 10:30:57;;;;;;;0.57;0.57;;;;;;;16.46;60.07;97039.13;5285685;27;20049;-96
2023/11/03 10:33:24;;;;;;;0.55;0.55;;;;;;;16.39;60.07;97045.97;5284790;27;20052;-96
2023/11/03 10:35:50;;;;;;;0.47;0.47;;;;;;;16.40;60.08;97044.97;5285526;27;20083;-96
2023/11/03 10:38:18;;;;;;;0.43;0.25;;;;;;;16.54;60.08;97012.09;5285116;27;20461;-96
2023/11/03 10:40:44;;;;;;;0.55;0.50;;;;;;;16.58;60.09;96997.69;5285184;27;20063;-95
2023/11/03 10:43:09;;;;;;;0.88;0.85;;;;;;;16.41;60.07;96996.75;5285315;27;20072;-96
2023/11/03 10:45:36;;;;;;;2.35;1.17;;;;;;;16.39;60.07;97006.56;5284964;27;20374;-96
2023/11/03 10:48:16;;;;;;;0.00;0.00;;;;;;;16.47;60.09;96995.31;5285097;27;20069;-95
2023/11/03 10:50:45;;;;;;;;;;;;;;;16.43;60.07;96983.47;5286041;27;20764;-96
2023/11/03 10:53:29;;;;;;;0.00;0.00;;;;;;;16.26;60.07;96985.13;5330979;26;19959;-95
2023/11/03 10:55:55;;;;;;;0.35;0.35;;;;;;;16.11;60.06;96984.88;5327702;27;20417;-96
2023/11/03 10:58:21;;;;;;;0.00;0.00;;;;;;;16.04;60.06;96998.72;5285103;27;20118;-95
2023/11/03 11:01:28;;;;;;;1.40;1.10;;;;;;;16.02;60.06;96979.66;5303490;27;20112;-94
2023/11/03 11:04:06;;;;;;;2.22;1.08;;;;;;;16.00;60.05;96945.72;5297146;27;20066;-96
2023/11/03 11:06:37;;;;;;;0.10;0.10;;;;;;;15.92;60.04;96924.66;5302973;27;20060;-94
2023/11/03 11:09:08;;;;;;;0.37;0.37;;;;;;;15.68;60.03;96935.78;5286083;27;20753;-95
2023/11/03 11:11:35;;;;;;;0.03;0.03;;;;;;;15.90;60.04;96914.34;5285445;27;20110;-95
2023/11/03 11:14:21;;;;;;;0.68;0.68;;;;;;;15.72;60.04;96837.47;5285856;27;20065;-94
2023/11/03 11:16:46;;;;;;;2.37;1.67;;;;;;;15.65;60.03;96803.16;5303601;27;20174;-94
2023/11/03 11:19:14;;;;;;;0.55;0.55;;;;;;;15.65;60.04;96853.00;5302799;27;20066;-95
2023/11/03 11:21:45;;;;;;;0.45;0.20;;;;;;;15.53;60.02;96897.88;5285544;27;20419;-95
2023/11/03 11:24:11;;;;;;;0.13;0.13;;;;;;;15.58;60.02;96904.34;5285756;27;20418;-96
2023/11/03 11:26:36;;;;;;;0.00;0.00;;;;;;;15.59;60.03;96908.63;5284926;27;20092;-96
2023/11/03 11:29:02;;;;;;;0.95;0.60;;;;;;;15.55;60.02;96899.37;5284525;27;20128;-95